sensor_id;sensor_type;location;lat;lon;timestamp;pressure;altitude;pressure_sealevel;temperature;humidity
68169;BME280;54981;50.206;15.978;2023-09-12T00:01:34;98588.22;;;15.64;nan
68169;BME280;54981;50.206;15.978;2023-09-12T00:04:05;98591.75;;;15.65;nan
68169;BME280;54981;50.206;15.978;2023-09-12T00:06:35;98590.63;;;15.67;nan
68169;BME280;54981;50.206;15.978;2023-09-12T00:09:05;98586.38;;;15.76;nan
68169;BME280;54981;50.206;15.978;2023-09-12T00:11:36;98583.56;;;15.77;nan
68169;BME280;54981;50.206;15.978;2023-09-12T00:14:08;98580.75;;;15.79;nan
68169;BME280;54981;50.206;15.978;2023-09-12T00:16:39;98581.50;;;15.70;nan
68169;BME280;54981;50.206;15.978;2023-09-12T00:19:09;98587.59;;;15.61;nan
68169;BME280;54981;50.206;15.978;2023-09-12T00:21:40;98580.78;;;15.45;nan
68169;BME280;54981;50.206;15.978;2023-09-12T00:24:11;98579.09;;;15.44;nan
68169;BME280;54981;50.206;15.978;2023-09-12T00:26:41;98583.22;;;15.48;nan
68169;BME280;54981;50.206;15.978;2023-09-12T00:29:11;98577.84;;;15.48;nan
68169;BME280;54981;50.206;15.978;2023-09-12T00:31:42;98571.28;;;15.41;nan
68169;BME280;54981;50.206;15.978;2023-09-12T00:34:16;98573.50;;;15.36;nan
68169;BME280;54981;50.206;15.978;2023-09-12T00:36:47;98570.06;;;15.34;nan
68169;BME280;54981;50.206;15.978;2023-09-12T00:39:17;98571.91;;;15.33;nan
68169;BME280;54981;50.206;15.978;2023-09-12T00:41:48;98570.69;;;15.26;nan
68169;BME280;54981;50.206;15.978;2023-09-12T00:44:18;98568.13;;;15.25;nan
68169;BME280;54981;50.206;15.978;2023-09-12T00:46:49;98561.19;;;15.22;nan
68169;BME280;54981;50.206;15.978;2023-09-12T00:49:20;98565.69;;;15.22;nan
68169;BME280;54981;50.206;15.978;2023-09-12T00:51:52;98566.53;;;15.22;nan
68169;BME280;54981;50.206;15.978;2023-09-12T00:54:23;98557.78;;;15.20;nan
68169;BME280;54981;50.206;15.978;2023-09-12T00:56:54;98555.69;;;15.12;nan
68169;BME280;54981;50.206;15.978;2023-09-12T00:59:24;98553.28;;;15.09;nan
68169;BME280;54981;50.206;15.978;2023-09-12T01:01:55;98554.00;;;15.11;nan
68169;BME280;54981;50.206;15.978;2023-09-12T01:04:27;98562.78;;;15.13;nan
68169;BME280;54981;50.206;15.978;2023-09-12T01:06:57;98568.00;;;14.93;nan
68169;BME280;54981;50.206;15.978;2023-09-12T01:09:28;98558.75;;;14.85;nan
68169;BME280;54981;50.206;15.978;2023-09-12T01:11:59;98559.72;;;14.73;nan
68169;BME280;54981;50.206;15.978;2023-09-12T01:14:32;98569.34;;;14.76;nan
68169;BME280;54981;50.206;15.978;2023-09-12T01:17:03;98568.88;;;14.82;nan
68169;BME280;54981;50.206;15.978;2023-09-12T01:19:33;98565.19;;;14.60;nan
68169;BME280;54981;50.206;15.978;2023-09-12T01:22:36;98572.72;;;14.55;nan
68169;BME280;54981;50.206;15.978;2023-09-12T01:27:49;98566.53;;;14.66;nan
68169;BME280;54981;50.206;15.978;2023-09-12T01:30:22;98569.81;;;14.69;nan
68169;BME280;54981;50.206;15.978;2023-09-12T01:32:53;98557.41;;;14.68;nan
68169;BME280;54981;50.206;15.978;2023-09-12T01:35:24;98556.41;;;14.69;nan
68169;BME280;54981;50.206;15.978;2023-09-12T01:37:54;98554.34;;;14.73;nan
68169;BME280;54981;50.206;15.978;2023-09-12T01:40:34;98563.72;;;14.79;nan
68169;BME280;54981;50.206;15.978;2023-09-12T01:43:06;98559.94;;;14.81;nan
68169;BME280;54981;50.206;15.978;2023-09-12T01:45:37;98557.41;;;14.80;nan
68169;BME280;54981;50.206;15.978;2023-09-12T01:48:08;98561.31;;;14.87;nan
68169;BME280;54981;50.206;15.978;2023-09-12T01:50:38;98554.75;;;14.80;nan
68169;BME280;54981;50.206;15.978;2023-09-12T01:53:09;98556.56;;;14.79;nan
68169;BME280;54981;50.206;15.978;2023-09-12T01:55:42;98564.34;;;14.82;nan
68169;BME280;54981;50.206;15.978;2023-09-12T01:58:14;98569.47;;;14.85;nan
68169;BME280;54981;50.206;15.978;2023-09-12T02:00:44;98562.03;;;14.78;nan
68169;BME280;54981;50.206;15.978;2023-09-12T02:03:14;98569.69;;;14.71;nan
68169;BME280;54981;50.206;15.978;2023-09-12T02:05:45;98564.22;;;14.73;nan
68169;BME280;54981;50.206;15.978;2023-09-12T02:08:15;98566.16;;;14.70;nan
68169;BME280;54981;50.206;15.978;2023-09-12T02:10:45;98565.44;;;14.68;nan
68169;BME280;54981;50.206;15.978;2023-09-12T02:13:16;98569.09;;;14.67;nan
68169;BME280;54981;50.206;15.978;2023-09-12T02:15:46;98568.13;;;14.68;nan
68169;BME280;54981;50.206;15.978;2023-09-12T02:18:16;98563.59;;;14.69;nan
68169;BME280;54981;50.206;15.978;2023-09-12T02:20:47;98566.41;;;14.67;nan
68169;BME280;54981;50.206;15.978;2023-09-12T02:23:18;98565.44;;;14.68;nan
68169;BME280;54981;50.206;15.978;2023-09-12T02:25:49;98571.22;;;14.51;nan
68169;BME280;54981;50.206;15.978;2023-09-12T02:28:19;98578.28;;;14.52;nan
68169;BME280;54981;50.206;15.978;2023-09-12T02:30:49;98581.09;;;14.51;nan
68169;BME280;54981;50.206;15.978;2023-09-12T02:33:20;98574.84;;;14.50;nan
68169;BME280;54981;50.206;15.978;2023-09-12T02:35:50;98578.28;;;14.52;nan
68169;BME280;54981;50.206;15.978;2023-09-12T02:38:20;98579.78;;;14.56;nan
68169;BME280;54981;50.206;15.978;2023-09-12T02:40:51;98577.84;;;14.58;nan
68169;BME280;54981;50.206;15.978;2023-09-12T02:43:21;98577.09;;;14.56;nan
68169;BME280;54981;50.206;15.978;2023-09-12T02:45:52;98571.00;;;14.54;nan
68169;BME280;54981;50.206;15.978;2023-09-12T02:48:22;98572.91;;;14.52;nan
68169;BME280;54981;50.206;15.978;2023-09-12T02:50:52;98572.53;;;14.45;nan
68169;BME280;54981;50.206;15.978;2023-09-12T02:53:23;98572.38;;;14.36;nan
68169;BME280;54981;50.206;15.978;2023-09-12T02:55:53;98578.97;;;14.43;nan
68169;BME280;54981;50.206;15.978;2023-09-12T02:58:24;98580.94;;;14.41;nan
68169;BME280;54981;50.206;15.978;2023-09-12T03:00:54;98578.38;;;14.39;nan
68169;BME280;54981;50.206;15.978;2023-09-12T03:03:25;98577.53;;;14.39;nan
68169;BME280;54981;50.206;15.978;2023-09-12T03:05:59;98572.78;;;14.42;nan
68169;BME280;54981;50.206;15.978;2023-09-12T03:08:30;98578.13;;;14.42;nan
68169;BME280;54981;50.206;15.978;2023-09-12T03:11:00;98580.00;;;14.53;nan
68169;BME280;54981;50.206;15.978;2023-09-12T03:13:33;98578.09;;;14.55;nan
68169;BME280;54981;50.206;15.978;2023-09-12T03:16:04;98575.91;;;14.60;nan
68169;BME280;54981;50.206;15.978;2023-09-12T03:18:35;98569.81;;;14.69;nan
68169;BME280;54981;50.206;15.978;2023-09-12T03:21:05;98571.91;;;14.77;nan
68169;BME280;54981;50.206;15.978;2023-09-12T03:23:36;98570.09;;;14.78;nan
68169;BME280;54981;50.206;15.978;2023-09-12T03:26:06;98576.41;;;14.77;nan
68169;BME280;54981;50.206;15.978;2023-09-12T03:28:37;98580.16;;;14.74;nan
68169;BME280;54981;50.206;15.978;2023-09-12T03:31:12;98583.44;;;14.55;nan
68169;BME280;54981;50.206;15.978;2023-09-12T03:33:44;98574.84;;;14.50;nan
68169;BME280;54981;50.206;15.978;2023-09-12T03:36:19;98584.19;;;14.33;nan
68169;BME280;54981;50.206;15.978;2023-09-12T03:38:50;98580.66;;;14.33;nan
68169;BME280;54981;50.206;15.978;2023-09-12T03:41:20;98575.31;;;14.33;nan
68169;BME280;54981;50.206;15.978;2023-09-12T03:43:55;98577.72;;;14.36;nan
68169;BME280;54981;50.206;15.978;2023-09-12T03:46:25;98579.47;;;14.37;nan
68169;BME280;54981;50.206;15.978;2023-09-12T03:48:56;98587.59;;;14.35;nan
68169;BME280;54981;50.206;15.978;2023-09-12T03:51:26;98578.63;;;14.36;nan
68169;BME280;54981;50.206;15.978;2023-09-12T03:53:57;98574.34;;;14.34;nan
68169;BME280;54981;50.206;15.978;2023-09-12T03:56:27;98574.34;;;14.34;nan
68169;BME280;54981;50.206;15.978;2023-09-12T03:58:57;98579.69;;;14.34;nan
68169;BME280;54981;50.206;15.978;2023-09-12T04:01:29;98575.66;;;14.28;nan
68169;BME280;54981;50.206;15.978;2023-09-12T04:04:00;98569.03;;;14.21;nan
68169;BME280;54981;50.206;15.978;2023-09-12T04:06:30;98567.34;;;14.20;nan
68169;BME280;54981;50.206;15.978;2023-09-12T04:09:01;98578.06;;;14.20;nan
68169;BME280;54981;50.206;15.978;2023-09-12T04:11:31;98567.81;;;14.14;nan
68169;BME280;54981;50.206;15.978;2023-09-12T04:14:01;98577.66;;;14.13;nan
68169;BME280;54981;50.206;15.978;2023-09-12T04:16:31;98568.91;;;14.11;nan
68169;BME280;54981;50.206;15.978;2023-09-12T04:19:03;98571.47;;;14.13;nan
68169;BME280;54981;50.206;15.978;2023-09-12T04:21:34;98573.16;;;14.14;nan
68169;BME280;54981;50.206;15.978;2023-09-12T04:24:05;98573.06;;;14.15;nan
68169;BME280;54981;50.206;15.978;2023-09-12T04:26:35;98575.97;;;14.12;nan
68169;BME280;54981;50.206;15.978;2023-09-12T04:29:06;98575.56;;;14.05;nan
68169;BME280;54981;50.206;15.978;2023-09-12T04:31:36;98573.00;;;14.04;nan
68169;BME280;54981;50.206;15.978;2023-09-12T04:34:06;98567.03;;;14.00;nan
68169;BME280;54981;50.206;15.978;2023-09-12T04:36:37;98576.03;;;13.99;nan
68169;BME280;54981;50.206;15.978;2023-09-12T04:39:07;98577.09;;;13.97;nan
68169;BME280;54981;50.206;15.978;2023-09-12T04:41:38;98575.19;;;13.99;nan
68169;BME280;54981;50.206;15.978;2023-09-12T04:44:08;98579.84;;;14.08;nan
68169;BME280;54981;50.206;15.978;2023-09-12T04:46:38;98579.16;;;14.17;nan
68169;BME280;54981;50.206;15.978;2023-09-12T04:49:09;98577.91;;;14.10;nan
68169;BME280;54981;50.206;15.978;2023-09-12T04:51:39;98580.09;;;14.05;nan
68169;BME280;54981;50.206;15.978;2023-09-12T04:54:10;98581.53;;;14.09;nan
68169;BME280;54981;50.206;15.978;2023-09-12T04:56:40;98581.59;;;14.20;nan
68169;BME280;54981;50.206;15.978;2023-09-12T04:59:10;98587.59;;;14.24;nan
68169;BME280;54981;50.206;15.978;2023-09-12T05:01:41;98590.88;;;14.27;nan
68169;BME280;54981;50.206;15.978;2023-09-12T05:04:11;98591.88;;;14.38;nan
68169;BME280;54981;50.206;15.978;2023-09-12T05:06:41;98588.25;;;14.39;nan
68169;BME280;54981;50.206;15.978;2023-09-12T05:09:12;98592.44;;;14.54;nan
68169;BME280;54981;50.206;15.978;2023-09-12T05:11:42;98585.66;;;14.73;nan
68169;BME280;54981;50.206;15.978;2023-09-12T05:14:12;98586.75;;;14.81;nan
68169;BME280;54981;50.206;15.978;2023-09-12T05:16:43;98589.56;;;14.91;nan
68169;BME280;54981;50.206;15.978;2023-09-12T05:19:13;98588.63;;;15.03;nan
68169;BME280;54981;50.206;15.978;2023-09-12T05:21:43;98591.53;;;15.11;nan
68169;BME280;54981;50.206;15.978;2023-09-12T05:24:14;98599.34;;;15.26;nan
68169;BME280;54981;50.206;15.978;2023-09-12T05:26:44;98596.78;;;15.36;nan
68169;BME280;54981;50.206;15.978;2023-09-12T05:29:15;98597.88;;;15.44;nan
68169;BME280;54981;50.206;15.978;2023-09-12T05:31:45;98604.22;;;15.54;nan
68169;BME280;54981;50.206;15.978;2023-09-12T05:34:15;98607.25;;;15.61;nan
68169;BME280;54981;50.206;15.978;2023-09-12T05:36:46;98598.22;;;15.62;nan
68169;BME280;54981;50.206;15.978;2023-09-12T05:39:16;98598.84;;;15.54;nan
68169;BME280;54981;50.206;15.978;2023-09-12T05:41:47;98608.81;;;15.75;nan
68169;BME280;54981;50.206;15.978;2023-09-12T05:44:17;98602.06;;;15.92;nan
68169;BME280;54981;50.206;15.978;2023-09-12T05:46:48;98595.06;;;16.12;nan
68169;BME280;54981;50.206;15.978;2023-09-12T05:49:19;98588.41;;;16.27;nan
68169;BME280;54981;50.206;15.978;2023-09-12T05:51:49;98586.91;;;16.34;nan
68169;BME280;54981;50.206;15.978;2023-09-12T05:54:20;98588.03;;;16.53;nan
68169;BME280;54981;50.206;15.978;2023-09-12T05:56:50;98591.38;;;16.66;nan
68169;BME280;54981;50.206;15.978;2023-09-12T05:59:21;98595.47;;;16.81;nan
68169;BME280;54981;50.206;15.978;2023-09-12T06:01:51;98593.69;;;16.92;nan
68169;BME280;54981;50.206;15.978;2023-09-12T06:04:22;98597.72;;;17.07;nan
68169;BME280;54981;50.206;15.978;2023-09-12T06:06:53;98596.34;;;17.13;nan
68169;BME280;54981;50.206;15.978;2023-09-12T06:09:23;98594.88;;;17.30;nan
68169;BME280;54981;50.206;15.978;2023-09-12T06:11:53;98593.59;;;17.34;nan
68169;BME280;54981;50.206;15.978;2023-09-12T06:14:24;98591.53;;;17.47;nan
68169;BME280;54981;50.206;15.978;2023-09-12T06:16:54;98597.69;;;17.68;nan
68169;BME280;54981;50.206;15.978;2023-09-12T06:19:25;98599.28;;;17.81;nan
68169;BME280;54981;50.206;15.978;2023-09-12T06:21:55;98596.50;;;17.92;nan
68169;BME280;54981;50.206;15.978;2023-09-12T06:24:25;98594.94;;;17.99;nan
68169;BME280;54981;50.206;15.978;2023-09-12T06:26:56;98601.19;;;18.19;nan
68169;BME280;54981;50.206;15.978;2023-09-12T06:29:27;98593.53;;;18.34;nan
68169;BME280;54981;50.206;15.978;2023-09-12T06:31:57;98591.41;;;18.47;nan
68169;BME280;54981;50.206;15.978;2023-09-12T06:34:28;98601.03;;;18.60;nan
68169;BME280;54981;50.206;15.978;2023-09-12T06:36:58;98602.72;;;18.70;nan
68169;BME280;54981;50.206;15.978;2023-09-12T06:39:29;98599.56;;;18.94;nan
68169;BME280;54981;50.206;15.978;2023-09-12T06:41:59;98594.72;;;19.08;nan
68169;BME280;54981;50.206;15.978;2023-09-12T06:44:29;98582.44;;;19.23;nan
68169;BME280;54981;50.206;15.978;2023-09-12T06:47:00;98591.09;;;19.27;nan
68169;BME280;54981;50.206;15.978;2023-09-12T06:49:30;98592.03;;;19.35;nan
68169;BME280;54981;50.206;15.978;2023-09-12T06:52:02;98588.31;;;19.46;nan
68169;BME280;54981;50.206;15.978;2023-09-12T06:54:33;98588.25;;;19.56;nan
68169;BME280;54981;50.206;15.978;2023-09-12T06:57:04;98592.78;;;19.65;nan
68169;BME280;54981;50.206;15.978;2023-09-12T06:59:34;98584.47;;;19.76;nan
68169;BME280;54981;50.206;15.978;2023-09-12T07:02:05;98592.38;;;19.88;nan
68169;BME280;54981;50.206;15.978;2023-09-12T07:04:35;98592.16;;;19.99;nan
68169;BME280;54981;50.206;15.978;2023-09-12T07:07:06;98592.84;;;20.01;nan
68169;BME280;54981;50.206;15.978;2023-09-12T07:09:36;98588.63;;;20.16;nan
68169;BME280;54981;50.206;15.978;2023-09-12T07:12:06;98593.41;;;20.40;nan
68169;BME280;54981;50.206;15.978;2023-09-12T07:14:37;98582.66;;;20.67;nan
68169;BME280;54981;50.206;15.978;2023-09-12T07:17:08;98587.31;;;20.82;nan
68169;BME280;54981;50.206;15.978;2023-09-12T07:19:38;98587.44;;;20.99;nan
68169;BME280;54981;50.206;15.978;2023-09-12T07:22:09;98587.41;;;21.17;nan
68169;BME280;54981;50.206;15.978;2023-09-12T07:24:39;98584.69;;;21.17;nan
68169;BME280;54981;50.206;15.978;2023-09-12T07:27:09;98587.47;;;21.33;nan
68169;BME280;54981;50.206;15.978;2023-09-12T07:29:40;98589.09;;;21.44;nan
68169;BME280;54981;50.206;15.978;2023-09-12T07:32:10;98592.47;;;21.46;nan
68169;BME280;54981;50.206;15.978;2023-09-12T07:34:40;98584.81;;;21.76;nan
68169;BME280;54981;50.206;15.978;2023-09-12T07:37:12;98584.31;;;21.80;nan
68169;BME280;54981;50.206;15.978;2023-09-12T07:39:43;98587.06;;;21.97;nan
68169;BME280;54981;50.206;15.978;2023-09-12T07:42:13;98579.84;;;22.22;nan
68169;BME280;54981;50.206;15.978;2023-09-12T07:44:44;98585.28;;;22.38;nan
68169;BME280;54981;50.206;15.978;2023-09-12T07:47:14;98580.91;;;22.62;nan
68169;BME280;54981;50.206;15.978;2023-09-12T07:49:45;98569.50;;;22.74;nan
68169;BME280;54981;50.206;15.978;2023-09-12T07:52:16;98577.97;;;22.96;nan
68169;BME280;54981;50.206;15.978;2023-09-12T07:54:46;98573.53;;;23.11;nan
68169;BME280;54981;50.206;15.978;2023-09-12T07:57:16;98580.13;;;23.25;nan
68169;BME280;54981;50.206;15.978;2023-09-12T07:59:47;98571.81;;;23.27;nan
68169;BME280;54981;50.206;15.978;2023-09-12T08:02:17;98564.19;;;23.61;nan
68169;BME280;54981;50.206;15.978;2023-09-12T08:04:49;98564.97;;;23.87;nan
68169;BME280;54981;50.206;15.978;2023-09-12T08:07:20;98565.75;;;23.95;nan
68169;BME280;54981;50.206;15.978;2023-09-12T08:09:56;98563.97;;;24.11;nan
68169;BME280;54981;50.206;15.978;2023-09-12T08:12:29;98565.63;;;24.20;nan
68169;BME280;54981;50.206;15.978;2023-09-12T08:14:59;98558.34;;;24.35;nan
68169;BME280;54981;50.206;15.978;2023-09-12T08:17:30;98558.47;;;24.42;nan
68169;BME280;54981;50.206;15.978;2023-09-12T08:20:00;98562.06;;;24.65;nan
68169;BME280;54981;50.206;15.978;2023-09-12T08:22:31;98568.53;;;24.79;nan
68169;BME280;54981;50.206;15.978;2023-09-12T08:25:01;98570.38;;;25.02;nan
68169;BME280;54981;50.206;15.978;2023-09-12T08:27:31;98574.88;;;24.95;nan
68169;BME280;54981;50.206;15.978;2023-09-12T08:30:02;98574.88;;;24.95;nan
68169;BME280;54981;50.206;15.978;2023-09-12T08:32:34;98570.84;;;25.05;nan
68169;BME280;54981;50.206;15.978;2023-09-12T08:35:08;98582.50;;;25.14;nan
68169;BME280;54981;50.206;15.978;2023-09-12T08:37:42;98578.31;;;25.26;nan
68169;BME280;54981;50.206;15.978;2023-09-12T08:40:13;98574.06;;;25.39;nan
68169;BME280;54981;50.206;15.978;2023-09-12T08:42:45;98576.53;;;25.48;nan
68169;BME280;54981;50.206;15.978;2023-09-12T08:45:16;98581.22;;;25.40;nan
68169;BME280;54981;50.206;15.978;2023-09-12T08:47:52;98582.13;;;25.77;nan
68169;BME280;54981;50.206;15.978;2023-09-12T08:50:40;98578.00;;;25.96;100.00
68169;BME280;54981;50.206;15.978;2023-09-12T08:53:11;98580.53;;;26.19;100.00
68169;BME280;54981;50.206;15.978;2023-09-12T08:55:41;98579.00;;;26.52;100.00
68169;BME280;54981;50.206;15.978;2023-09-12T08:58:12;98579.38;;;26.49;100.00
68169;BME280;54981;50.206;15.978;2023-09-12T09:00:43;98576.25;;;26.52;100.00
68169;BME280;54981;50.206;15.978;2023-09-12T09:03:13;98577.56;;;26.78;100.00
68169;BME280;54981;50.206;15.978;2023-09-12T09:05:45;98583.78;;;26.50;100.00
68169;BME280;54981;50.206;15.978;2023-09-12T09:08:17;98582.38;;;26.33;100.00
68169;BME280;54981;50.206;15.978;2023-09-12T09:11:00;98578.19;;;25.79;100.00
68169;BME280;54981;50.206;15.978;2023-09-12T09:13:36;98579.13;;;25.57;100.00
68169;BME280;54981;50.206;15.978;2023-09-12T09:18:53;98575.03;;;25.31;100.00
68169;BME280;54981;50.206;15.978;2023-09-12T09:21:26;98586.97;;;25.45;100.00
68169;BME280;54981;50.206;15.978;2023-09-12T09:24:08;98580.34;;;25.54;100.00
68169;BME280;54981;50.206;15.978;2023-09-12T09:29:21;98578.66;;;26.19;100.00
68169;BME280;54981;50.206;15.978;2023-09-12T09:31:52;98575.94;;;26.41;100.00
68169;BME280;54981;50.206;15.978;2023-09-12T09:34:22;98574.41;;;25.95;100.00
68169;BME280;54981;50.206;15.978;2023-09-12T09:36:56;98573.59;;;26.16;100.00
68169;BME280;54981;50.206;15.978;2023-09-12T09:39:28;98571.13;;;26.21;100.00
68169;BME280;54981;50.206;15.978;2023-09-12T09:41:59;98580.59;;;26.62;100.00
68169;BME280;54981;50.206;15.978;2023-09-12T09:44:30;98566.25;;;26.81;100.00
68169;BME280;54981;50.206;15.978;2023-09-12T09:47:02;98558.97;;;26.67;100.00
68169;BME280;54981;50.206;15.978;2023-09-12T09:49:33;98558.81;;;26.68;100.00
68169;BME280;54981;50.206;15.978;2023-09-12T09:52:04;98558.97;;;26.45;100.00
68169;BME280;54981;50.206;15.978;2023-09-12T09:54:35;98552.13;;;27.06;100.00
68169;BME280;54981;50.206;15.978;2023-09-12T09:57:12;98557.22;;;27.09;100.00
68169;BME280;54981;50.206;15.978;2023-09-12T09:59:48;98557.31;;;27.63;100.00
68169;BME280;54981;50.206;15.978;2023-09-12T10:02:22;98553.88;;;27.48;100.00
68169;BME280;54981;50.206;15.978;2023-09-12T10:04:56;98552.44;;;27.52;100.00
68169;BME280;54981;50.206;15.978;2023-09-12T10:07:32;98546.63;;;27.75;100.00
68169;BME280;54981;50.206;15.978;2023-09-12T10:10:03;98553.13;;;28.22;100.00
68169;BME280;54981;50.206;15.978;2023-09-12T10:12:36;98554.00;;;28.43;100.00
68169;BME280;54981;50.206;15.978;2023-09-12T10:15:07;98540.97;;;28.78;100.00
68169;BME280;54981;50.206;15.978;2023-09-12T10:17:39;98541.59;;;29.00;100.00
68169;BME280;54981;50.206;15.978;2023-09-12T10:20:20;98535.28;;;28.60;100.00
68169;BME280;54981;50.206;15.978;2023-09-12T10:23:05;98530.19;;;28.37;100.00
68169;BME280;54981;50.206;15.978;2023-09-12T10:25:40;98530.63;;;28.34;100.00
68169;BME280;54981;50.206;15.978;2023-09-12T10:28:10;98529.81;;;28.80;100.00
68169;BME280;54981;50.206;15.978;2023-09-12T10:30:41;98526.88;;;28.75;100.00
68169;BME280;54981;50.206;15.978;2023-09-12T10:33:13;98525.78;;;28.96;100.00
68169;BME280;54981;50.206;15.978;2023-09-12T10:35:45;98521.59;;;29.06;100.00
68169;BME280;54981;50.206;15.978;2023-09-12T10:38:18;98522.88;;;28.84;100.00
68169;BME280;54981;50.206;15.978;2023-09-12T10:40:52;98519.84;;;29.05;100.00
68169;BME280;54981;50.206;15.978;2023-09-12T10:43:26;98516.75;;;29.08;100.00
68169;BME280;54981;50.206;15.978;2023-09-12T10:45:56;98521.16;;;28.83;100.00
68169;BME280;54981;50.206;15.978;2023-09-12T10:48:30;98515.28;;;28.73;100.00
68169;BME280;54981;50.206;15.978;2023-09-12T10:51:02;98514.81;;;28.29;100.00
68169;BME280;54981;50.206;15.978;2023-09-12T10:53:36;98524.00;;;27.95;100.00
68169;BME280;54981;50.206;15.978;2023-09-12T11:01:44;98522.72;;;27.84;100.00
68169;BME280;54981;50.206;15.978;2023-09-12T11:06:50;98521.69;;;27.92;100.00
68169;BME280;54981;50.206;15.978;2023-09-12T11:14:27;98523.66;;;28.38;100.00
68169;BME280;54981;50.206;15.978;2023-09-12T11:19:44;98510.00;;;28.71;100.00
68169;BME280;54981;50.206;15.978;2023-09-12T11:22:30;98510.84;;;28.92;100.00
68169;BME280;54981;50.206;15.978;2023-09-12T11:25:02;98512.94;;;29.09;100.00
68169;BME280;54981;50.206;15.978;2023-09-12T11:30:23;98505.09;;;29.20;100.00
68169;BME280;54981;50.206;15.978;2023-09-12T11:32:54;98507.38;;;29.29;100.00
68169;BME280;54981;50.206;15.978;2023-09-12T11:35:26;98510.94;;;29.43;100.00
68169;BME280;54981;50.206;15.978;2023-09-12T11:37:59;98503.13;;;29.40;100.00
68169;BME280;54981;50.206;15.978;2023-09-12T11:43:04;98503.88;;;29.61;100.00
68169;BME280;54981;50.206;15.978;2023-09-12T11:45:35;98504.72;;;29.75;100.00
68169;BME280;54981;50.206;15.978;2023-09-12T11:48:06;98501.59;;;29.51;100.00
68169;BME280;54981;50.206;15.978;2023-09-12T11:50:36;98503.34;;;29.45;100.00
68169;BME280;54981;50.206;15.978;2023-09-12T11:53:11;98498.75;;;29.84;100.00
68169;BME280;54981;50.206;15.978;2023-09-12T11:56:08;98499.81;;;30.47;100.00
68169;BME280;54981;50.206;15.978;2023-09-12T11:58:39;98511.13;;;30.89;100.00
68169;BME280;54981;50.206;15.978;2023-09-12T12:01:11;98500.84;;;31.21;100.00
68169;BME280;54981;50.206;15.978;2023-09-12T12:03:43;98499.63;;;30.98;100.00
68169;BME280;54981;50.206;15.978;2023-09-12T12:06:14;98495.63;;;30.69;100.00
68169;BME280;54981;50.206;15.978;2023-09-12T12:08:45;98498.19;;;30.07;100.00
68169;BME280;54981;50.206;15.978;2023-09-12T12:11:16;98492.03;;;29.80;100.00
68169;BME280;54981;50.206;15.978;2023-09-12T12:13:46;98497.47;;;30.19;100.00
68169;BME280;54981;50.206;15.978;2023-09-12T12:16:16;98501.81;;;30.01;100.00
68169;BME280;54981;50.206;15.978;2023-09-12T12:18:47;98497.09;;;30.15;100.00
68169;BME280;54981;50.206;15.978;2023-09-12T12:21:17;98497.25;;;30.27;100.00
68169;BME280;54981;50.206;15.978;2023-09-12T12:23:57;98493.16;;;30.61;100.00
68169;BME280;54981;50.206;15.978;2023-09-12T12:26:28;98488.69;;;31.10;100.00
68169;BME280;54981;50.206;15.978;2023-09-12T12:29:03;98494.91;;;31.42;98.32
68169;BME280;54981;50.206;15.978;2023-09-12T12:31:33;98488.53;;;31.24;98.32
68169;BME280;54981;50.206;15.978;2023-09-12T12:34:05;98486.31;;;31.69;99.65
68169;BME280;54981;50.206;15.978;2023-09-12T12:36:41;98488.03;;;32.00;98.39
68169;BME280;54981;50.206;15.978;2023-09-12T12:39:12;98479.75;;;32.42;99.95
68169;BME280;54981;50.206;15.978;2023-09-12T12:41:44;98485.44;;;32.59;95.03
68169;BME280;54981;50.206;15.978;2023-09-12T12:44:15;98481.13;;;32.75;92.29
68169;BME280;54981;50.206;15.978;2023-09-12T12:49:21;98476.59;;;33.04;90.74
68169;BME280;54981;50.206;15.978;2023-09-12T12:51:52;98474.31;;;33.13;91.01
68169;BME280;54981;50.206;15.978;2023-09-12T12:54:23;98474.31;;;33.13;94.06
68169;BME280;54981;50.206;15.978;2023-09-12T12:56:53;98473.59;;;33.06;90.91
68169;BME280;54981;50.206;15.978;2023-09-12T12:59:24;98474.56;;;32.76;92.09
68169;BME280;54981;50.206;15.978;2023-09-12T13:01:54;98478.84;;;32.07;94.56
68169;BME280;54981;50.206;15.978;2023-09-12T13:04:24;98465.22;;;31.93;95.75
68169;BME280;54981;50.206;15.978;2023-09-12T13:06:55;98471.81;;;32.34;96.56
68169;BME280;54981;50.206;15.978;2023-09-12T13:09:25;98462.78;;;32.69;93.85
68169;BME280;54981;50.206;15.978;2023-09-12T13:11:55;98461.09;;;32.92;88.90
68169;BME280;54981;50.206;15.978;2023-09-12T13:14:27;98473.34;;;32.84;92.11
68169;BME280;54981;50.206;15.978;2023-09-12T13:17:01;98473.56;;;32.94;85.03
68169;BME280;54981;50.206;15.978;2023-09-12T13:19:31;98471.31;;;32.91;82.45
68169;BME280;54981;50.206;15.978;2023-09-12T13:22:02;98466.13;;;32.71;80.70
68169;BME280;54981;50.206;15.978;2023-09-12T13:24:33;98462.06;;;32.85;78.79
68169;BME280;54981;50.206;15.978;2023-09-12T13:27:03;98460.03;;;32.69;85.72
68169;BME280;54981;50.206;15.978;2023-09-12T13:29:33;98460.38;;;32.84;86.01
68169;BME280;54981;50.206;15.978;2023-09-12T13:32:04;98455.28;;;32.34;99.42
68169;BME280;54981;50.206;15.978;2023-09-12T13:34:34;98458.22;;;31.79;100.00
68169;BME280;54981;50.206;15.978;2023-09-12T13:37:05;98460.25;;;31.53;100.00
68169;BME280;54981;50.206;15.978;2023-09-12T13:39:36;98454.13;;;31.70;90.64
68169;BME280;54981;50.206;15.978;2023-09-12T13:42:06;98452.59;;;32.04;88.95
68169;BME280;54981;50.206;15.978;2023-09-12T13:44:38;98449.03;;;31.55;100.00
68169;BME280;54981;50.206;15.978;2023-09-12T13:47:08;98453.88;;;31.23;91.57
68169;BME280;54981;50.206;15.978;2023-09-12T13:49:39;98454.19;;;31.51;89.19
68169;BME280;54981;50.206;15.978;2023-09-12T13:52:09;98442.66;;;31.73;92.95
68169;BME280;54981;50.206;15.978;2023-09-12T13:54:40;98445.72;;;31.65;84.92